Terminal Aerodrome Forecast
Issued by NWS

Home | Current Version | Previous Version | Text Only | Print | Product List | Glossary On
Versions: 1 2 3 4 5 6 7 8 9 10 11 12 13 14 15
848
FTUS46 KMTR 050220 AAA
TAFSNS
TAF AMD
KSNS 050220Z 0502/0524 27009KT P6SM FEW025 BKN150
     FM050600 26006KT P6SM BKN025 OVC150
     FM050900 26004KT P6SM BKN015 OVC025
     FM051500 14008KT P6SM SCT015 BKN025
     FM051800 21007KT P6SM SCT030 BKN100
     FM052100 29010KT P6SM VCSH SCT035 BKN100=

USA.gov is the U.S. government's official web portal to all federal, state and local government web resources and services.